createdAt,value
2018-05-09T00:01:54.059Z,18.69
2018-05-09T00:04:21.443Z,18.68
2018-05-09T00:06:48.834Z,18.69
2018-05-09T00:09:16.216Z,18.67
2018-05-09T00:11:43.603Z,18.67
2018-05-09T00:14:10.986Z,18.68
2018-05-09T00:16:38.371Z,18.67
2018-05-09T00:19:05.756Z,18.66
2018-05-09T00:21:33.146Z,18.65
2018-05-09T00:24:00.567Z,18.66
2018-05-09T00:26:27.958Z,18.69
2018-05-09T00:28:55.343Z,18.66
2018-05-09T00:31:22.723Z,18.67
2018-05-09T00:33:50.120Z,18.67
2018-05-09T00:36:17.508Z,18.65
2018-05-09T00:38:44.887Z,18.63
2018-05-09T00:41:12.273Z,18.61
2018-05-09T00:43:39.655Z,18.64
2018-05-09T00:46:07.044Z,18.70
2018-05-09T00:48:34.428Z,18.71
2018-05-09T00:51:01.811Z,18.67
2018-05-09T00:53:29.207Z,18.66
2018-05-09T00:55:56.594Z,18.62
2018-05-09T00:58:23.976Z,18.66
2018-05-09T01:00:51.363Z,18.65
2018-05-09T01:03:18.746Z,18.60
2018-05-09T01:05:46.187Z,18.64
2018-05-09T01:08:13.567Z,18.60
2018-05-09T01:10:41.035Z,18.66
2018-05-09T01:13:08.471Z,18.60
2018-05-09T01:15:36.230Z,18.58
2018-05-09T01:18:03.615Z,18.57
2018-05-09T01:20:30.994Z,18.56
2018-05-09T01:22:58.387Z,18.51
2018-05-09T01:25:25.763Z,18.56
2018-05-09T01:27:53.151Z,18.52
2018-05-09T01:30:20.535Z,18.60
2018-05-09T01:32:47.934Z,18.57
2018-05-09T01:35:15.321Z,18.56
2018-05-09T01:37:42.711Z,18.49
2018-05-09T01:40:10.091Z,18.34
2018-05-09T01:42:37.483Z,18.27
2018-05-09T01:45:04.875Z,18.20
2018-05-09T01:47:32.267Z,18.06
2018-05-09T01:49:59.656Z,17.91
2018-05-09T01:52:27.047Z,17.82
2018-05-09T01:54:54.429Z,17.79
2018-05-09T01:57:21.810Z,17.76
2018-05-09T01:59:49.207Z,17.67
2018-05-09T02:02:16.607Z,17.58
2018-05-09T02:04:43.991Z,17.51
2018-05-09T02:07:11.384Z,17.44
2018-05-09T02:09:38.759Z,17.37
2018-05-09T02:12:06.148Z,17.34
2018-05-09T02:14:33.539Z,17.29
2018-05-09T02:17:00.923Z,17.28
2018-05-09T02:19:28.307Z,17.25
2018-05-09T02:21:55.719Z,17.21
2018-05-09T02:24:23.103Z,17.13
2018-05-09T02:26:50.493Z,17.10
2018-05-09T02:29:17.875Z,17.10
2018-05-09T02:31:45.261Z,17.04
2018-05-09T02:34:12.656Z,17.01
2018-05-09T02:36:40.036Z,16.98
2018-05-09T02:39:07.435Z,16.99
2018-05-09T02:41:34.825Z,16.96
2018-05-09T02:44:02.199Z,16.90
2018-05-09T02:46:29.598Z,16.87
2018-05-09T02:48:56.986Z,16.86
2018-05-09T02:51:24.366Z,16.80
2018-05-09T02:53:51.757Z,16.73
2018-05-09T02:56:19.143Z,16.69
2018-05-09T02:58:46.531Z,16.66
2018-05-09T03:01:14.272Z,16.58
2018-05-09T03:03:41.658Z,16.53
2018-05-09T03:06:09.035Z,16.51
2018-05-09T03:08:36.423Z,16.49
2018-05-09T03:11:03.801Z,16.39
2018-05-09T03:13:31.192Z,16.41
2018-05-09T03:15:58.574Z,16.37
2018-05-09T03:18:25.959Z,16.34
2018-05-09T03:20:53.343Z,16.35
2018-05-09T03:23:20.737Z,16.33
2018-05-09T03:25:48.127Z,16.32
2018-05-09T03:28:15.771Z,16.36
2018-05-09T03:30:43.159Z,16.33
2018-05-09T03:33:10.546Z,16.30
2018-05-09T03:35:37.927Z,16.23
2018-05-09T03:38:05.315Z,16.19
2018-05-09T03:40:32.701Z,16.18
2018-05-09T03:43:00.083Z,16.18
2018-05-09T03:45:27.479Z,16.17
2018-05-09T03:47:54.867Z,16.16
2018-05-09T03:50:22.267Z,16.15
2018-05-09T03:52:49.651Z,16.17
2018-05-09T03:55:17.039Z,16.14
2018-05-09T03:57:44.427Z,16.14
2018-05-09T04:00:11.820Z,16.10
2018-05-09T04:02:50.943Z,16.12
2018-05-09T04:05:30.199Z,16.13
2018-05-09T04:08:09.356Z,16.11
2018-05-09T04:10:36.759Z,16.14
2018-05-09T04:13:04.220Z,16.19
2018-05-09T04:15:31.530Z,16.20
2018-05-09T04:17:58.994Z,16.23
2018-05-09T04:20:26.379Z,16.25
2018-05-09T04:22:53.839Z,16.28
2018-05-09T04:25:21.227Z,16.30
2018-05-09T04:27:48.609Z,16.29
2018-05-09T04:30:15.999Z,16.27
2018-05-09T04:32:43.387Z,16.26
2018-05-09T04:35:10.770Z,16.29
2018-05-09T04:37:38.159Z,16.31
2018-05-09T04:40:05.548Z,16.34
2018-05-09T04:42:32.932Z,16.38
2018-05-09T04:45:00.320Z,16.40
2018-05-09T04:47:27.704Z,16.41
2018-05-09T04:49:55.099Z,16.42
2018-05-09T04:52:22.481Z,16.43
2018-05-09T04:54:49.870Z,16.46
2018-05-09T04:57:17.259Z,16.47
2018-05-09T04:59:44.646Z,16.47
2018-05-09T05:02:12.040Z,16.50
2018-05-09T05:04:39.422Z,16.53
2018-05-09T05:07:06.851Z,16.56
2018-05-09T05:09:34.187Z,16.57
2018-05-09T05:12:01.599Z,16.63
2018-05-09T05:14:28.991Z,16.67
2018-05-09T05:16:56.378Z,16.70
2018-05-09T05:19:23.771Z,16.75
2018-05-09T05:21:51.151Z,16.80
2018-05-09T05:24:18.543Z,16.86
2018-05-09T05:26:45.928Z,16.94
2018-05-09T05:29:13.314Z,17.01
2018-05-09T05:31:40.699Z,17.05
2018-05-09T05:34:08.112Z,17.12
2018-05-09T05:36:35.491Z,17.18
2018-05-09T05:39:02.885Z,17.24
2018-05-09T05:41:30.263Z,17.31
2018-05-09T05:43:57.652Z,17.35
2018-05-09T05:46:25.044Z,17.39
2018-05-09T05:48:52.423Z,17.42
2018-05-09T05:51:19.807Z,17.49
2018-05-09T05:53:47.186Z,17.53
2018-05-09T05:56:14.576Z,17.56
2018-05-09T05:58:41.962Z,17.64
2018-05-09T06:01:09.367Z,17.70
2018-05-09T06:03:36.754Z,17.75
2018-05-09T06:06:04.153Z,17.81
2018-05-09T06:08:31.547Z,17.86
2018-05-09T06:10:58.930Z,17.90
2018-05-09T06:13:26.328Z,17.91
2018-05-09T06:15:53.710Z,17.98
2018-05-09T06:18:21.122Z,18.08
2018-05-09T06:20:48.551Z,18.08
2018-05-09T06:23:15.924Z,18.18
2018-05-09T06:25:43.311Z,18.27
2018-05-09T06:28:10.705Z,18.37
2018-05-09T06:30:38.145Z,18.49
2018-05-09T06:33:05.523Z,18.55
2018-05-09T06:35:32.974Z,18.64
2018-05-09T06:38:00.359Z,18.70
2018-05-09T06:40:27.751Z,18.77
2018-05-09T06:42:55.138Z,18.85
2018-05-09T06:45:22.518Z,18.93
2018-05-09T06:47:49.907Z,19.01
2018-05-09T06:50:17.300Z,19.12
2018-05-09T06:52:44.679Z,19.21
2018-05-09T06:55:12.067Z,19.31
2018-05-09T06:57:39.481Z,19.38
2018-05-09T07:00:06.872Z,19.49
2018-05-09T07:02:34.257Z,19.60
2018-05-09T07:05:01.631Z,19.71
2018-05-09T07:07:29.022Z,19.87
2018-05-09T07:09:56.419Z,19.93
2018-05-09T07:12:23.811Z,20.01
2018-05-09T07:14:51.199Z,20.09
2018-05-09T07:17:18.587Z,20.16
2018-05-09T07:19:45.973Z,20.27
2018-05-09T07:22:13.370Z,20.35
2018-05-09T07:24:40.740Z,20.47
2018-05-09T07:27:08.148Z,20.56
2018-05-09T07:29:35.531Z,20.68
2018-05-09T07:32:02.923Z,20.81
2018-05-09T07:34:30.303Z,20.89
2018-05-09T07:36:57.695Z,21.00
2018-05-09T07:39:25.084Z,21.11
2018-05-09T07:41:52.471Z,21.20
2018-05-09T07:44:19.855Z,21.35
2018-05-09T07:46:47.251Z,21.41
2018-05-09T07:49:14.634Z,21.47
2018-05-09T07:51:42.027Z,21.60
2018-05-09T07:54:09.417Z,21.77
2018-05-09T07:56:36.799Z,21.86
2018-05-09T07:59:04.191Z,21.93
2018-05-09T08:01:31.571Z,22.10
2018-05-09T08:03:58.978Z,22.19
2018-05-09T08:06:26.359Z,22.26
2018-05-09T08:08:53.751Z,22.33
2018-05-09T08:11:21.130Z,22.41
2018-05-09T08:13:48.515Z,22.51
2018-05-09T08:16:15.893Z,22.65
2018-05-09T08:18:43.287Z,22.76
2018-05-09T08:21:10.674Z,22.82
2018-05-09T08:23:38.064Z,22.93
2018-05-09T08:26:05.446Z,22.99
2018-05-09T08:28:32.835Z,23.00
2018-05-09T08:31:00.218Z,23.11
2018-05-09T08:33:27.603Z,23.24
2018-05-09T08:35:54.986Z,23.34
2018-05-09T08:38:22.370Z,23.48
2018-05-09T08:40:49.765Z,23.63
2018-05-09T08:43:17.249Z,23.70
2018-05-09T08:45:44.559Z,23.87
2018-05-09T08:48:11.940Z,24.02
2018-05-09T08:50:39.322Z,24.18
2018-05-09T08:53:06.715Z,24.39
2018-05-09T08:55:34.138Z,24.59
2018-05-09T08:58:01.491Z,24.77
2018-05-09T09:00:28.879Z,24.96
2018-05-09T09:02:56.266Z,25.03
2018-05-09T09:05:23.646Z,25.19
2018-05-09T09:07:51.103Z,25.32
2018-05-09T09:10:18.519Z,25.52
2018-05-09T09:12:45.888Z,25.72
2018-05-09T09:15:13.277Z,25.84
2018-05-09T09:17:40.663Z,25.94
2018-05-09T09:20:08.047Z,26.15
2018-05-09T09:22:35.432Z,26.25
2018-05-09T09:25:02.828Z,26.42
2018-05-09T09:27:30.203Z,26.57
2018-05-09T09:29:57.599Z,26.81
2018-05-09T09:32:24.983Z,27.04
2018-05-09T09:34:52.378Z,27.38
2018-05-09T09:37:19.756Z,27.73
2018-05-09T09:39:47.652Z,28.11
2018-05-09T09:42:15.027Z,28.53
2018-05-09T09:44:42.407Z,28.85
2018-05-09T09:47:09.801Z,29.21
2018-05-09T09:49:37.183Z,29.62
2018-05-09T09:52:04.715Z,29.84
2018-05-09T09:54:32.103Z,30.09
2018-05-09T09:56:59.547Z,30.34
2018-05-09T09:59:26.934Z,30.58
2018-05-09T10:01:54.331Z,30.81
2018-05-09T10:04:21.730Z,31.11
2018-05-09T10:06:49.199Z,31.43
2018-05-09T10:09:16.583Z,31.42
2018-05-09T10:11:43.983Z,31.17
2018-05-09T10:14:11.363Z,31.54
2018-05-09T10:16:38.746Z,31.92
2018-05-09T10:19:06.141Z,32.16
2018-05-09T10:21:33.516Z,32.36
2018-05-09T10:24:00.907Z,32.26
2018-05-09T10:26:28.302Z,32.33
2018-05-09T10:28:55.684Z,32.77
2018-05-09T10:31:23.076Z,32.86
2018-05-09T10:33:50.476Z,33.20
2018-05-09T10:36:17.858Z,33.38
2018-05-09T10:38:45.246Z,33.64
2018-05-09T10:41:12.630Z,33.85
2018-05-09T10:43:40.095Z,34.10
2018-05-09T10:46:07.485Z,34.26
2018-05-09T10:48:34.863Z,34.43
2018-05-09T10:51:02.255Z,34.40
2018-05-09T10:53:29.635Z,34.47
2018-05-09T10:55:57.024Z,34.25
2018-05-09T10:58:24.425Z,34.29
2018-05-09T11:00:51.804Z,34.67
2018-05-09T11:03:19.195Z,34.32
2018-05-09T11:05:46.582Z,34.64
2018-05-09T11:08:13.967Z,34.74
2018-05-09T11:10:41.815Z,35.03
2018-05-09T11:13:09.200Z,35.17
2018-05-09T11:15:36.586Z,34.31
2018-05-09T11:18:03.979Z,34.48
2018-05-09T11:20:31.375Z,34.93
2018-05-09T11:22:58.779Z,35.16
2018-05-09T11:25:26.163Z,35.30
2018-05-09T11:27:53.555Z,35.05
2018-05-09T11:30:20.948Z,34.73
2018-05-09T11:32:48.527Z,34.66
2018-05-09T11:35:15.912Z,34.90
2018-05-09T11:37:43.295Z,35.17
2018-05-09T11:40:10.687Z,35.03
2018-05-09T11:42:38.071Z,35.37
2018-05-09T11:45:05.468Z,35.37
2018-05-09T11:47:32.931Z,34.99
2018-05-09T11:50:00.319Z,35.06
2018-05-09T11:52:27.700Z,34.52
2018-05-09T11:54:55.093Z,34.28
2018-05-09T11:57:22.472Z,34.25
2018-05-09T11:59:49.864Z,34.25
2018-05-09T12:02:17.266Z,33.97
2018-05-09T12:04:44.639Z,34.23
2018-05-09T12:07:12.028Z,34.25
2018-05-09T12:09:39.415Z,34.42
2018-05-09T12:12:06.808Z,34.45
2018-05-09T12:14:34.187Z,34.16
2018-05-09T12:17:01.575Z,34.39
2018-05-09T12:19:28.971Z,34.65
2018-05-09T12:21:56.359Z,34.78
2018-05-09T12:24:23.747Z,34.92
2018-05-09T12:26:51.140Z,34.60
2018-05-09T12:29:18.527Z,35.06
2018-05-09T12:31:45.915Z,35.26
2018-05-09T12:34:13.299Z,35.45
2018-05-09T12:36:40.686Z,35.54
2018-05-09T12:39:08.079Z,35.41
2018-05-09T12:41:35.467Z,35.18
2018-05-09T12:44:02.850Z,35.37
2018-05-09T12:46:30.235Z,35.34
2018-05-09T12:48:57.619Z,34.81
2018-05-09T12:51:25.007Z,34.99
2018-05-09T12:53:52.402Z,34.63
2018-05-09T12:56:19.776Z,33.62
2018-05-09T12:58:47.162Z,33.15
2018-05-09T13:01:14.546Z,32.58
2018-05-09T13:03:41.935Z,31.69
2018-05-09T13:06:09.327Z,31.33
2018-05-09T13:08:36.726Z,31.04
2018-05-09T13:11:04.108Z,31.08
2018-05-09T13:13:31.487Z,30.86
2018-05-09T13:15:58.878Z,30.66
2018-05-09T13:18:26.261Z,30.37
2018-05-09T13:20:53.646Z,29.96
2018-05-09T13:23:21.039Z,29.95
2018-05-09T13:25:48.477Z,30.12
2018-05-09T13:28:15.955Z,30.25
2018-05-09T13:30:43.347Z,30.72
2018-05-09T13:33:10.735Z,31.25
2018-05-09T13:35:38.121Z,31.65
2018-05-09T13:38:05.506Z,31.52
2018-05-09T13:40:33.230Z,31.91
2018-05-09T13:43:00.619Z,32.14
2018-05-09T13:45:27.995Z,32.30
2018-05-09T13:47:55.384Z,32.29
2018-05-09T13:50:22.782Z,32.43
2018-05-09T13:52:50.215Z,32.73
2018-05-09T13:55:17.603Z,32.72
2018-05-09T13:57:44.986Z,32.84
2018-05-09T14:00:12.485Z,32.83
2018-05-09T14:02:39.870Z,32.72
2018-05-09T14:05:07.283Z,32.71
2018-05-09T14:07:34.672Z,32.49
2018-05-09T14:10:02.092Z,32.25
2018-05-09T14:12:29.447Z,32.26
2018-05-09T14:14:56.839Z,32.05
2018-05-09T14:17:24.221Z,32.28
2018-05-09T14:19:51.614Z,32.28
2018-05-09T14:22:19.003Z,32.31
2018-05-09T14:24:46.401Z,32.34
2018-05-09T14:27:13.874Z,32.21
2018-05-09T14:29:41.178Z,32.02
2018-05-09T14:32:08.692Z,32.05
2018-05-09T14:34:36.040Z,31.83
2018-05-09T14:37:03.435Z,31.49
2018-05-09T14:39:30.847Z,31.32
2018-05-09T14:41:58.232Z,31.40
2018-05-09T14:44:25.629Z,31.33
2018-05-09T14:46:53.019Z,31.38
2018-05-09T14:49:20.417Z,31.37
2018-05-09T14:51:47.787Z,31.31
2018-05-09T14:54:15.175Z,31.31
2018-05-09T14:56:42.571Z,31.26
2018-05-09T14:59:09.971Z,30.91
2018-05-09T15:01:37.362Z,30.95
2018-05-09T15:04:04.747Z,30.93
2018-05-09T15:06:32.138Z,30.65
2018-05-09T15:08:59.525Z,30.85
2018-05-09T15:11:26.907Z,30.80
2018-05-09T15:13:54.308Z,30.91
2018-05-09T15:16:21.692Z,30.99
2018-05-09T15:18:49.091Z,31.07
2018-05-09T15:21:16.483Z,30.61
2018-05-09T15:23:43.867Z,30.45
2018-05-09T15:26:11.247Z,30.53
2018-05-09T15:28:38.636Z,30.61
2018-05-09T15:31:06.078Z,30.80
2018-05-09T15:33:33.512Z,31.09
2018-05-09T15:36:00.933Z,31.39
2018-05-09T15:38:28.319Z,31.51
2018-05-09T15:40:55.700Z,31.68
2018-05-09T15:43:23.084Z,31.78
2018-05-09T15:45:50.472Z,31.72
2018-05-09T15:48:17.862Z,31.77
2018-05-09T15:50:45.255Z,31.87
2018-05-09T15:53:12.634Z,31.85
2018-05-09T15:55:40.032Z,31.78
2018-05-09T15:58:07.411Z,31.58
2018-05-09T16:00:34.794Z,31.53
2018-05-09T16:03:02.180Z,31.44
2018-05-09T16:05:29.563Z,31.16
2018-05-09T16:07:56.955Z,30.94
2018-05-09T16:10:24.430Z,30.51
2018-05-09T16:12:51.730Z,30.01
2018-05-09T16:15:19.112Z,29.79
2018-05-09T16:17:46.515Z,29.53
2018-05-09T16:20:13.895Z,29.30
2018-05-09T16:22:41.345Z,29.12
2018-05-09T16:25:08.686Z,29.03
2018-05-09T16:27:36.151Z,28.96
2018-05-09T16:30:03.561Z,28.82
2018-05-09T16:32:30.943Z,28.72
2018-05-09T16:34:58.337Z,28.74
2018-05-09T16:37:25.719Z,28.91
2018-05-09T16:39:53.115Z,29.00
2018-05-09T16:42:20.501Z,28.99
2018-05-09T16:44:47.883Z,29.06
2018-05-09T16:47:15.263Z,29.10
2018-05-09T16:49:42.658Z,28.97
2018-05-09T16:52:10.040Z,28.83
2018-05-09T16:54:37.427Z,28.75
2018-05-09T16:57:04.830Z,28.73
2018-05-09T16:59:32.204Z,28.72
2018-05-09T17:01:59.603Z,28.72
2018-05-09T17:04:26.983Z,28.62
2018-05-09T17:06:54.368Z,28.44
2018-05-09T17:09:21.908Z,28.38
2018-05-09T17:11:49.291Z,28.21
2018-05-09T17:14:16.679Z,28.12
2018-05-09T17:16:44.063Z,28.00
2018-05-09T17:19:11.449Z,27.86
2018-05-09T17:24:57.259Z,27.51
2018-05-09T17:27:24.639Z,27.36
2018-05-09T17:29:52.028Z,27.19
2018-05-09T17:32:19.410Z,27.01
2018-05-09T17:34:46.804Z,26.90
2018-05-09T17:37:14.183Z,26.76
2018-05-09T17:39:41.580Z,26.64
2018-05-09T17:42:08.971Z,26.53
2018-05-09T17:44:36.359Z,26.40
2018-05-09T17:47:03.750Z,26.28
2018-05-09T17:49:31.134Z,26.17
2018-05-09T17:51:58.543Z,26.05
2018-05-09T17:54:25.935Z,25.96
2018-05-09T17:56:53.310Z,25.89
2018-05-09T17:59:20.703Z,25.74
2018-05-09T18:01:48.091Z,25.65
2018-05-09T18:04:15.480Z,25.55
2018-05-09T18:06:42.858Z,25.43
2018-05-09T18:09:10.251Z,25.33
2018-05-09T18:11:37.631Z,25.26
2018-05-09T18:14:05.383Z,25.16
2018-05-09T18:16:32.767Z,25.04
2018-05-09T18:19:00.172Z,24.89
2018-05-09T18:21:27.557Z,24.77
2018-05-09T18:23:54.927Z,24.68
2018-05-09T18:26:22.315Z,24.57
2018-05-09T18:28:49.703Z,24.49
2018-05-09T18:31:17.104Z,24.39
2018-05-09T18:33:44.487Z,24.31
2018-05-09T18:36:11.871Z,24.22
2018-05-09T18:38:39.267Z,24.13
2018-05-09T18:41:06.656Z,24.05
2018-05-09T18:43:34.045Z,23.98
2018-05-09T18:46:01.424Z,23.93
2018-05-09T18:48:28.818Z,23.86
2018-05-09T18:50:56.198Z,23.83
2018-05-09T18:53:23.587Z,23.80
2018-05-09T18:55:51.067Z,23.77
2018-05-09T18:58:18.440Z,23.75
2018-05-09T19:00:45.835Z,23.74
2018-05-09T19:03:13.214Z,23.68
2018-05-09T19:05:40.608Z,23.79
2018-05-09T19:08:08.000Z,23.88
2018-05-09T19:10:35.383Z,23.88
2018-05-09T19:13:02.771Z,23.88
2018-05-09T19:15:30.159Z,23.88
2018-05-09T19:17:57.543Z,23.75
2018-05-09T19:20:24.923Z,23.85
2018-05-09T19:22:52.336Z,23.86
2018-05-09T19:25:19.720Z,23.87
2018-05-09T19:27:47.111Z,23.87
2018-05-09T19:30:14.494Z,23.86
2018-05-09T19:32:41.902Z,23.85
2018-05-09T19:35:09.291Z,23.86
2018-05-09T19:37:36.671Z,23.88
2018-05-09T19:40:04.062Z,23.85
2018-05-09T19:42:31.451Z,23.85
2018-05-09T19:44:58.888Z,23.89
2018-05-09T19:47:26.276Z,23.87
2018-05-09T19:49:53.683Z,23.89
2018-05-09T19:52:21.055Z,23.85
2018-05-09T19:54:48.652Z,23.81
2018-05-09T19:57:16.031Z,23.81
2018-05-09T19:59:43.419Z,23.76
2018-05-09T20:02:10.811Z,23.78
2018-05-09T20:04:38.203Z,23.78
2018-05-09T20:07:05.583Z,23.80
2018-05-09T20:09:33.051Z,23.82
2018-05-09T20:12:00.440Z,23.80
2018-05-09T20:14:27.899Z,23.81
2018-05-09T20:16:55.332Z,23.78
2018-05-09T20:19:22.715Z,23.74
2018-05-09T20:21:50.271Z,23.77
2018-05-09T20:24:17.662Z,23.73
2018-05-09T20:26:45.043Z,23.68
2018-05-09T20:29:12.427Z,23.59
2018-05-09T20:31:56.599Z,23.53
2018-05-09T20:34:23.995Z,23.50
2018-05-09T20:36:51.400Z,23.42
2018-05-09T20:39:18.795Z,23.33
2018-05-09T20:41:46.179Z,23.26
2018-05-09T20:44:13.572Z,23.23
2018-05-09T20:46:40.953Z,23.19
2018-05-09T20:49:08.359Z,23.21
2018-05-09T20:51:47.363Z,23.22
2018-05-09T20:54:14.759Z,23.25
2018-05-09T20:56:42.325Z,23.22
2018-05-09T20:59:09.702Z,23.18
2018-05-09T21:01:48.992Z,23.14
2018-05-09T21:04:16.384Z,23.06
2018-05-09T21:06:43.769Z,23.04
2018-05-09T21:09:11.167Z,23.02
2018-05-09T21:11:38.531Z,22.91
2018-05-09T21:14:05.915Z,22.90
2018-05-09T21:16:33.306Z,22.87
2018-05-09T21:19:00.700Z,22.71
2018-05-09T21:21:28.103Z,22.67
2018-05-09T21:23:55.467Z,22.68
2018-05-09T21:26:22.855Z,22.75
2018-05-09T21:28:50.238Z,22.76
2018-05-09T21:31:17.626Z,22.76
2018-05-09T21:33:45.039Z,22.80
2018-05-09T21:36:12.907Z,22.81
2018-05-09T21:38:40.289Z,22.79
2018-05-09T21:41:07.666Z,22.75
2018-05-09T21:43:35.055Z,22.69
2018-05-09T21:46:02.444Z,22.56
2018-05-09T21:48:29.831Z,22.60
2018-05-09T21:50:57.215Z,22.57
2018-05-09T21:53:24.608Z,22.51
2018-05-09T21:55:52.062Z,22.49
2018-05-09T21:58:19.384Z,22.42
2018-05-09T22:00:46.763Z,22.39
2018-05-09T22:03:14.320Z,22.34
2018-05-09T22:05:41.699Z,22.30
2018-05-09T22:08:09.087Z,22.26
2018-05-09T22:10:36.474Z,22.26
2018-05-09T22:13:03.862Z,22.22
2018-05-09T22:15:31.250Z,22.22
2018-05-09T22:17:58.647Z,22.19
2018-05-09T22:20:26.036Z,22.16
2018-05-09T22:22:53.425Z,22.11
2018-05-09T22:25:20.807Z,22.06
2018-05-09T22:27:48.191Z,22.05
2018-05-09T22:30:15.948Z,22.06
2018-05-09T22:32:43.327Z,22.01
2018-05-09T22:35:10.715Z,22.01
2018-05-09T22:37:38.106Z,22.02
2018-05-09T22:40:05.482Z,21.99
2018-05-09T22:42:32.875Z,21.98
2018-05-09T22:45:00.259Z,22.00
2018-05-09T22:47:27.647Z,21.99
2018-05-09T22:49:55.031Z,21.89
2018-05-09T22:52:22.419Z,21.84
2018-05-09T22:54:49.892Z,21.72
2018-05-09T22:57:17.199Z,21.70
2018-05-09T22:59:44.579Z,21.60
2018-05-09T23:02:11.962Z,21.52
2018-05-09T23:04:39.355Z,21.48
2018-05-09T23:07:06.730Z,21.41
2018-05-09T23:09:34.183Z,21.41
2018-05-09T23:12:01.571Z,21.31
2018-05-09T23:14:28.960Z,21.23
2018-05-09T23:16:56.339Z,21.20
2018-05-09T23:19:23.735Z,21.06
2018-05-09T23:21:51.118Z,21.01
2018-05-09T23:24:18.521Z,20.93
2018-05-09T23:26:45.899Z,20.77
2018-05-09T23:29:13.279Z,20.74
2018-05-09T23:31:40.669Z,20.75
2018-05-09T23:34:08.050Z,20.67
2018-05-09T23:36:35.443Z,20.61
2018-05-09T23:39:02.823Z,20.54
2018-05-09T23:41:30.207Z,20.42
2018-05-09T23:43:57.591Z,20.44
2018-05-09T23:46:24.980Z,20.34
2018-05-09T23:48:52.362Z,20.25
2018-05-09T23:51:19.751Z,20.14
2018-05-09T23:53:47.147Z,20.11
2018-05-09T23:56:14.527Z,20.11
2018-05-09T23:58:41.922Z,20.05
